首页
METAR-TAF:

METAR-TAF

机场 :

成吉思汗國際機場

乌兰巴托, 蒙古国

纬度: 47-55N, 经度: 106-52E, 海拔: 1306米

当前天气观测

该预报发布于29分钟前的02:00 UTC
风速4节,风向西转西北
温度 17°C
湿度 68%
气压 1011 hPa
能见度10公里或以上
散云层高于3300英尺

METAR: ZMUB 190200Z 29002MPS 9999 SCT033 17/11 Q1011 NOSIG RMK QFE651.5 68 MOP

时间: 11:29 (02:29 UTC)

预报

该预报发布于3小时和49分钟前的22:40 UTC
预报有效从19日的 00点(UTC)到 20日的 06点(UTC)
风速4节,风向多变
能见度10公里或以上
少量云层高于3000英尺, 积雨云.
散云层高于3300英尺
成为
从 19日的 04点(UTC)到 19日的 06点(UTC)
风速12节,风向北转西北
几率 40% :
短暂存在
从 19日的 06点(UTC)到 19日的 12点(UTC)
散云层高于3000英尺, 积雨云.
散云层高于3300英尺
雷暴, 阵雨
成为
从 19日的 10点(UTC)到 19日的 12点(UTC)
风速4节,风向多变
散云层高于3300英尺

TAF: ZMUB 182240Z 1900/2006 VRB02MPS 9999 FEW030CB SCT033 TX21/1907Z TN07/1921Z BECMG 1904/1906 33006MPS PROB40 TEMPO 1906/1912 TS SHRA SCT030CB SCT033 BECMG 1910/1912 VRB02MPS SCT033

超过4000个机场的气象观测和天气预报(METAR&TAF报告)。

可查询的气象台以黄色和红色小点在地图上表示。

将鼠标移到小点上方,可查看气象台名称。

然后点击查看天气观测和预报。

如需切换地图:点击带黑十字的绿色按钮放大地图;点击带横线的绿色按钮缩小地图;或者点击绿色箭头查看邻近地区的地图。


METAR-TAF: